sensor_id;sensor_type;location;lat;lon;timestamp;pressure;altitude;pressure_sealevel;temperature;humidity
42601;BME280;28229;48.856;9.088;2024-03-22T00:02:07;98653.44;;;8.27;100.00
42601;BME280;28229;48.856;9.088;2024-03-22T00:04:36;98654.34;;;8.19;100.00
42601;BME280;28229;48.856;9.088;2024-03-22T00:07:02;98653.72;;;8.17;100.00
42601;BME280;28229;48.856;9.088;2024-03-22T00:09:29;98637.81;;;8.19;100.00
42601;BME280;28229;48.856;9.088;2024-03-22T00:11:55;98638.16;;;8.16;100.00
42601;BME280;28229;48.856;9.088;2024-03-22T00:14:21;98638.56;;;8.13;100.00
42601;BME280;28229;48.856;9.088;2024-03-22T00:16:48;98637.19;;;8.17;100.00
42601;BME280;28229;48.856;9.088;2024-03-22T00:19:14;98639.00;;;8.01;100.00
42601;BME280;28229;48.856;9.088;2024-03-22T00:21:40;98639.13;;;7.93;100.00
42601;BME280;28229;48.856;9.088;2024-03-22T00:24:06;98624.38;;;7.92;100.00
42601;BME280;28229;48.856;9.088;2024-03-22T00:26:33;98627.00;;;7.92;100.00
42601;BME280;28229;48.856;9.088;2024-03-22T00:28:59;98626.03;;;7.93;100.00
42601;BME280;28229;48.856;9.088;2024-03-22T00:31:25;98624.56;;;7.91;100.00
42601;BME280;28229;48.856;9.088;2024-03-22T00:33:52;98632.50;;;7.97;100.00
42601;BME280;28229;48.856;9.088;2024-03-22T00:36:18;98636.88;;;7.90;100.00
42601;BME280;28229;48.856;9.088;2024-03-22T00:38:44;98629.97;;;7.89;100.00
42601;BME280;28229;48.856;9.088;2024-03-22T00:41:10;98625.41;;;7.76;100.00
42601;BME280;28229;48.856;9.088;2024-03-22T00:43:36;98620.34;;;7.75;100.00
42601;BME280;28229;48.856;9.088;2024-03-22T00:46:03;98614.91;;;7.76;100.00
42601;BME280;28229;48.856;9.088;2024-03-22T00:48:29;98613.41;;;7.67;100.00
42601;BME280;28229;48.856;9.088;2024-03-22T00:50:55;98607.44;;;7.58;100.00
42601;BME280;28229;48.856;9.088;2024-03-22T00:53:22;98603.56;;;7.54;100.00
42601;BME280;28229;48.856;9.088;2024-03-22T00:55:48;98603.75;;;7.53;100.00
42601;BME280;28229;48.856;9.088;2024-03-22T00:58:18;98598.06;;;7.49;100.00
42601;BME280;28229;48.856;9.088;2024-03-22T01:00:45;98594.06;;;7.53;100.00
42601;BME280;28229;48.856;9.088;2024-03-22T01:03:11;98591.91;;;7.42;100.00
42601;BME280;28229;48.856;9.088;2024-03-22T01:05:37;98589.94;;;7.44;100.00
42601;BME280;28229;48.856;9.088;2024-03-22T01:08:04;98580.91;;;7.32;100.00
42601;BME280;28229;48.856;9.088;2024-03-22T01:10:33;98577.75;;;7.36;100.00
42601;BME280;28229;48.856;9.088;2024-03-22T01:12:59;98576.63;;;7.31;100.00
42601;BME280;28229;48.856;9.088;2024-03-22T01:15:26;98571.50;;;7.22;100.00
42601;BME280;28229;48.856;9.088;2024-03-22T01:17:53;98564.81;;;7.20;100.00
42601;BME280;28229;48.856;9.088;2024-03-22T01:20:19;98564.19;;;7.18;100.00
42601;BME280;28229;48.856;9.088;2024-03-22T01:22:46;98559.13;;;7.16;100.00
42601;BME280;28229;48.856;9.088;2024-03-22T01:25:12;98571.88;;;7.19;100.00
42601;BME280;28229;48.856;9.088;2024-03-22T01:27:38;98564.56;;;7.15;100.00
42601;BME280;28229;48.856;9.088;2024-03-22T01:30:05;98564.47;;;7.08;100.00
42601;BME280;28229;48.856;9.088;2024-03-22T01:32:31;98566.81;;;7.03;100.00
42601;BME280;28229;48.856;9.088;2024-03-22T01:34:57;98566.91;;;7.10;100.00
42601;BME280;28229;48.856;9.088;2024-03-22T01:37:23;98572.03;;;7.03;100.00
42601;BME280;28229;48.856;9.088;2024-03-22T01:39:52;98576.19;;;7.12;100.00
42601;BME280;28229;48.856;9.088;2024-03-22T01:42:18;98576.25;;;7.04;100.00
42601;BME280;28229;48.856;9.088;2024-03-22T01:44:44;98577.09;;;7.04;100.00
42601;BME280;28229;48.856;9.088;2024-03-22T01:47:10;98559.94;;;7.02;100.00
42601;BME280;28229;48.856;9.088;2024-03-22T01:49:37;98563.56;;;7.01;100.00
42601;BME280;28229;48.856;9.088;2024-03-22T01:52:03;98552.69;;;6.89;100.00
42601;BME280;28229;48.856;9.088;2024-03-22T01:54:30;98550.72;;;6.91;100.00
42601;BME280;28229;48.856;9.088;2024-03-22T01:56:56;98552.88;;;6.88;100.00
42601;BME280;28229;48.856;9.088;2024-03-22T01:59:22;98549.91;;;6.91;100.00
42601;BME280;28229;48.856;9.088;2024-03-22T02:01:49;98549.19;;;6.97;100.00
42601;BME280;28229;48.856;9.088;2024-03-22T02:04:15;98533.25;;;6.92;100.00
42601;BME280;28229;48.856;9.088;2024-03-22T02:06:41;98533.59;;;6.89;100.00
42601;BME280;28229;48.856;9.088;2024-03-22T02:09:07;98529.88;;;6.83;100.00
42601;BME280;28229;48.856;9.088;2024-03-22T02:11:37;98528.44;;;6.80;100.00
42601;BME280;28229;48.856;9.088;2024-03-22T02:14:04;98532.22;;;6.78;100.00
42601;BME280;28229;48.856;9.088;2024-03-22T02:16:30;98528.44;;;6.80;100.00
42601;BME280;28229;48.856;9.088;2024-03-22T02:18:57;98523.19;;;6.80;100.00
42601;BME280;28229;48.856;9.088;2024-03-22T02:21:23;98532.41;;;6.76;100.00
42601;BME280;28229;48.856;9.088;2024-03-22T02:23:49;98523.28;;;6.72;100.00
42601;BME280;28229;48.856;9.088;2024-03-22T02:26:15;98526.88;;;6.71;100.00
42601;BME280;28229;48.856;9.088;2024-03-22T02:28:41;98527.22;;;6.68;100.00
42601;BME280;28229;48.856;9.088;2024-03-22T02:31:08;98513.53;;;6.66;100.00
42601;BME280;28229;48.856;9.088;2024-03-22T02:33:34;98523.06;;;6.59;100.00
42601;BME280;28229;48.856;9.088;2024-03-22T02:36:00;98514.66;;;6.48;100.00
42601;BME280;28229;48.856;9.088;2024-03-22T02:38:26;98515.31;;;6.51;100.00
42601;BME280;28229;48.856;9.088;2024-03-22T02:40:53;98510.25;;;6.49;100.00
42601;BME280;28229;48.856;9.088;2024-03-22T02:43:19;98505.34;;;6.31;100.00
42601;BME280;28229;48.856;9.088;2024-03-22T02:45:47;98498.78;;;6.35;100.00
42601;BME280;28229;48.856;9.088;2024-03-22T02:48:13;98494.88;;;6.31;100.00
42601;BME280;28229;48.856;9.088;2024-03-22T02:50:39;98495.91;;;6.22;100.00
42601;BME280;28229;48.856;9.088;2024-03-22T02:53:06;98498.13;;;6.33;100.00
42601;BME280;28229;48.856;9.088;2024-03-22T02:55:37;98497.13;;;6.34;100.00
42601;BME280;28229;48.856;9.088;2024-03-22T02:58:03;98500.56;;;6.35;100.00
42601;BME280;28229;48.856;9.088;2024-03-22T03:00:30;98494.53;;;6.34;100.00
42601;BME280;28229;48.856;9.088;2024-03-22T03:02:56;98496.16;;;6.35;100.00
42601;BME280;28229;48.856;9.088;2024-03-22T03:05:24;98501.03;;;6.38;100.00
42601;BME280;28229;48.856;9.088;2024-03-22T03:07:51;98493.72;;;6.34;100.00
42601;BME280;28229;48.856;9.088;2024-03-22T03:10:17;98485.47;;;6.22;100.00
42601;BME280;28229;48.856;9.088;2024-03-22T03:12:43;98489.56;;;6.24;100.00
42601;BME280;28229;48.856;9.088;2024-03-22T03:15:09;98483.53;;;6.24;100.00
42601;BME280;28229;48.856;9.088;2024-03-22T03:17:35;98481.88;;;6.23;100.00
42601;BME280;28229;48.856;9.088;2024-03-22T03:20:01;98482.47;;;6.33;100.00
42601;BME280;28229;48.856;9.088;2024-03-22T03:22:28;98482.09;;;6.36;100.00
42601;BME280;28229;48.856;9.088;2024-03-22T03:24:54;98481.44;;;6.34;100.00
42601;BME280;28229;48.856;9.088;2024-03-22T03:27:20;98484.06;;;6.34;100.00
42601;BME280;28229;48.856;9.088;2024-03-22T03:29:46;98477.41;;;6.32;100.00
42601;BME280;28229;48.856;9.088;2024-03-22T03:32:12;98479.22;;;6.31;100.00
42601;BME280;28229;48.856;9.088;2024-03-22T03:34:38;98476.41;;;6.33;100.00
42601;BME280;28229;48.856;9.088;2024-03-22T03:37:04;98477.41;;;6.32;100.00
42601;BME280;28229;48.856;9.088;2024-03-22T03:39:31;98472.00;;;6.33;100.00
42601;BME280;28229;48.856;9.088;2024-03-22T03:41:57;98476.59;;;6.31;100.00
42601;BME280;28229;48.856;9.088;2024-03-22T03:44:23;98470.81;;;6.36;100.00
42601;BME280;28229;48.856;9.088;2024-03-22T03:46:49;98470.13;;;6.42;100.00
42601;BME280;28229;48.856;9.088;2024-03-22T03:49:15;98466.97;;;6.46;100.00
42601;BME280;28229;48.856;9.088;2024-03-22T03:51:41;98464.44;;;6.38;100.00
42601;BME280;28229;48.856;9.088;2024-03-22T03:54:07;98458.22;;;6.39;100.00
42601;BME280;28229;48.856;9.088;2024-03-22T03:56:33;98456.88;;;6.43;100.00
42601;BME280;28229;48.856;9.088;2024-03-22T03:58:59;98454.91;;;6.45;100.00
42601;BME280;28229;48.856;9.088;2024-03-22T04:01:25;98456.16;;;6.50;100.00
42601;BME280;28229;48.856;9.088;2024-03-22T04:03:51;98450.22;;;6.56;100.00
42601;BME280;28229;48.856;9.088;2024-03-22T04:06:18;98456.72;;;6.60;100.00
42601;BME280;28229;48.856;9.088;2024-03-22T04:08:44;98456.09;;;6.58;100.00
42601;BME280;28229;48.856;9.088;2024-03-22T04:11:10;98455.91;;;6.59;100.00
42601;BME280;28229;48.856;9.088;2024-03-22T04:13:37;98453.94;;;6.61;100.00
42601;BME280;28229;48.856;9.088;2024-03-22T04:16:03;98450.44;;;6.69;100.00
42601;BME280;28229;48.856;9.088;2024-03-22T04:18:31;98454.84;;;6.69;100.00
42601;BME280;28229;48.856;9.088;2024-03-22T04:20:58;98452.69;;;6.72;100.00
42601;BME280;28229;48.856;9.088;2024-03-22T04:23:27;98444.47;;;6.75;100.00
42601;BME280;28229;48.856;9.088;2024-03-22T04:25:58;98447.81;;;6.84;100.00
42601;BME280;28229;48.856;9.088;2024-03-22T04:28:25;98449.34;;;6.78;100.00
42601;BME280;28229;48.856;9.088;2024-03-22T04:31:02;98455.03;;;6.82;100.00
42601;BME280;28229;48.856;9.088;2024-03-22T04:33:30;98451.88;;;6.86;100.00
42601;BME280;28229;48.856;9.088;2024-03-22T04:35:57;98453.13;;;6.91;100.00
42601;BME280;28229;48.856;9.088;2024-03-22T04:38:27;98448.81;;;6.98;100.00
42601;BME280;28229;48.856;9.088;2024-03-22T04:40:54;98458.91;;;7.01;100.00
42601;BME280;28229;48.856;9.088;2024-03-22T04:43:20;98458.19;;;7.07;100.00
42601;BME280;28229;48.856;9.088;2024-03-22T04:45:47;98463.84;;;7.11;100.00
42601;BME280;28229;48.856;9.088;2024-03-22T04:48:20;98464.13;;;7.16;100.00
42601;BME280;28229;48.856;9.088;2024-03-22T04:50:48;98463.69;;;7.12;100.00
42601;BME280;28229;48.856;9.088;2024-03-22T04:53:16;98461.97;;;7.19;100.00
42601;BME280;28229;48.856;9.088;2024-03-22T04:55:45;98459.50;;;7.18;100.00
42601;BME280;28229;48.856;9.088;2024-03-22T04:58:15;98465.19;;;7.21;100.00
42601;BME280;28229;48.856;9.088;2024-03-22T05:00:44;98456.38;;;7.22;100.00
42601;BME280;28229;48.856;9.088;2024-03-22T05:03:27;98458.06;;;7.30;100.00
42601;BME280;28229;48.856;9.088;2024-03-22T05:07:03;98456.25;;;7.31;100.00
42601;BME280;28229;48.856;9.088;2024-03-22T05:09:55;98462.50;;;7.30;100.00
42601;BME280;28229;48.856;9.088;2024-03-22T05:12:38;98457.97;;;7.38;100.00
42601;BME280;28229;48.856;9.088;2024-03-22T05:15:07;98462.38;;;7.38;100.00
42601;BME280;28229;48.856;9.088;2024-03-22T05:17:33;98452.28;;;7.35;100.00
42601;BME280;28229;48.856;9.088;2024-03-22T05:20:00;98452.16;;;7.43;100.00
42601;BME280;28229;48.856;9.088;2024-03-22T05:22:40;98445.59;;;7.47;100.00
42601;BME280;28229;48.856;9.088;2024-03-22T05:25:07;98451.81;;;7.46;100.00
42601;BME280;28229;48.856;9.088;2024-03-22T05:27:45;98449.38;;;7.44;100.00
42601;BME280;28229;48.856;9.088;2024-03-22T05:30:12;98442.78;;;7.49;100.00
42601;BME280;28229;48.856;9.088;2024-03-22T05:32:41;98443.31;;;7.44;100.00
42601;BME280;28229;48.856;9.088;2024-03-22T05:35:08;98439.72;;;7.45;100.00
42601;BME280;28229;48.856;9.088;2024-03-22T05:37:37;98434.50;;;7.45;100.00
42601;BME280;28229;48.856;9.088;2024-03-22T05:40:06;98432.22;;;7.42;100.00
42601;BME280;28229;48.856;9.088;2024-03-22T05:42:35;98432.06;;;7.43;100.00
42601;BME280;28229;48.856;9.088;2024-03-22T05:45:02;98433.31;;;7.48;100.00
42601;BME280;28229;48.856;9.088;2024-03-22T05:47:30;98428.50;;;7.51;100.00
42601;BME280;28229;48.856;9.088;2024-03-22T05:49:58;98430.13;;;7.52;100.00
42601;BME280;28229;48.856;9.088;2024-03-22T05:52:27;98423.25;;;7.51;100.00
42601;BME280;28229;48.856;9.088;2024-03-22T05:54:55;98422.72;;;7.56;100.00
42601;BME280;28229;48.856;9.088;2024-03-22T05:57:21;98424.81;;;7.46;100.00
42601;BME280;28229;48.856;9.088;2024-03-22T05:59:48;98409.47;;;7.42;100.00
42601;BME280;28229;48.856;9.088;2024-03-22T06:02:16;98417.59;;;7.48;100.00
42601;BME280;28229;48.856;9.088;2024-03-22T06:04:42;98406.38;;;7.54;100.00
42601;BME280;28229;48.856;9.088;2024-03-22T06:07:08;98407.63;;;7.58;100.00
42601;BME280;28229;48.856;9.088;2024-03-22T06:09:38;98409.94;;;7.68;100.00
42601;BME280;28229;48.856;9.088;2024-03-22T06:12:15;98411.38;;;7.70;100.00
42601;BME280;28229;48.856;9.088;2024-03-22T06:14:41;98417.41;;;7.71;100.00
42601;BME280;28229;48.856;9.088;2024-03-22T06:17:12;98413.78;;;7.72;100.00
42601;BME280;28229;48.856;9.088;2024-03-22T06:19:39;98415.44;;;7.73;100.00
42601;BME280;28229;48.856;9.088;2024-03-22T06:22:05;98412.19;;;7.71;100.00
42601;BME280;28229;48.856;9.088;2024-03-22T06:24:32;98409.47;;;7.79;100.00
42601;BME280;28229;48.856;9.088;2024-03-22T06:26:58;98413.31;;;7.83;100.00
42601;BME280;28229;48.856;9.088;2024-03-22T06:29:24;98406.69;;;7.87;100.00
42601;BME280;28229;48.856;9.088;2024-03-22T06:31:50;98407.56;;;7.94;100.00
42601;BME280;28229;48.856;9.088;2024-03-22T06:34:18;98407.81;;;7.99;100.00
42601;BME280;28229;48.856;9.088;2024-03-22T06:36:44;98405.16;;;8.21;100.00
42601;BME280;28229;48.856;9.088;2024-03-22T06:39:10;98408.63;;;8.28;100.00
42601;BME280;28229;48.856;9.088;2024-03-22T06:41:41;98406.13;;;8.42;100.00
42601;BME280;28229;48.856;9.088;2024-03-22T06:44:07;98400.72;;;8.43;100.00
42601;BME280;28229;48.856;9.088;2024-03-22T06:46:35;98403.13;;;8.45;100.00
42601;BME280;28229;48.856;9.088;2024-03-22T06:49:01;98390.22;;;8.43;100.00
42601;BME280;28229;48.856;9.088;2024-03-22T06:51:27;98392.03;;;8.77;100.00
42601;BME280;28229;48.856;9.088;2024-03-22T06:53:53;98393.34;;;9.02;100.00
42601;BME280;28229;48.856;9.088;2024-03-22T06:56:20;98399.06;;;9.19;100.00
42601;BME280;28229;48.856;9.088;2024-03-22T06:58:46;98403.16;;;9.34;98.24
42601;BME280;28229;48.856;9.088;2024-03-22T07:01:12;98400.56;;;9.41;95.86
42601;BME280;28229;48.856;9.088;2024-03-22T07:03:38;98408.28;;;9.56;95.45
42601;BME280;28229;48.856;9.088;2024-03-22T07:06:05;98395.38;;;9.68;93.77
42601;BME280;28229;48.856;9.088;2024-03-22T07:08:33;98400.63;;;9.75;93.36
42601;BME280;28229;48.856;9.088;2024-03-22T07:10:59;98397.19;;;9.87;93.05
42601;BME280;28229;48.856;9.088;2024-03-22T07:13:26;98394.56;;;9.94;92.99
42601;BME280;28229;48.856;9.088;2024-03-22T07:15:52;98399.22;;;10.12;92.86
42601;BME280;28229;48.856;9.088;2024-03-22T07:18:18;98386.50;;;10.22;91.10
42601;BME280;28229;48.856;9.088;2024-03-22T07:26:29;98387.31;;;10.09;88.56
42601;BME280;28229;48.856;9.088;2024-03-22T07:29:04;98383.06;;;10.22;86.55
42601;BME280;28229;48.856;9.088;2024-03-22T07:31:30;98380.63;;;10.34;88.31
42601;BME280;28229;48.856;9.088;2024-03-22T07:33:57;98377.00;;;10.35;86.07
42601;BME280;28229;48.856;9.088;2024-03-22T07:36:23;98372.53;;;10.42;85.31
42601;BME280;28229;48.856;9.088;2024-03-22T07:38:49;98376.34;;;10.59;84.92
42601;BME280;28229;48.856;9.088;2024-03-22T07:41:15;98367.22;;;10.69;83.43
42601;BME280;28229;48.856;9.088;2024-03-22T07:43:41;98368.41;;;10.73;83.08
42601;BME280;28229;48.856;9.088;2024-03-22T07:46:08;98358.25;;;10.83;82.56
42601;BME280;28229;48.856;9.088;2024-03-22T07:48:35;98361.66;;;10.90;83.10
42601;BME280;28229;48.856;9.088;2024-03-22T07:51:01;98359.00;;;11.03;83.30
42601;BME280;28229;48.856;9.088;2024-03-22T07:53:27;98357.91;;;11.18;82.05
42601;BME280;28229;48.856;9.088;2024-03-22T07:55:54;98361.91;;;11.27;82.68
42601;BME280;28229;48.856;9.088;2024-03-22T07:58:23;98361.06;;;11.65;82.80
42601;BME280;28229;48.856;9.088;2024-03-22T08:00:49;98361.75;;;11.86;81.80
42601;BME280;28229;48.856;9.088;2024-03-22T08:03:17;98370.09;;;12.08;80.08
42601;BME280;28229;48.856;9.088;2024-03-22T08:05:43;98369.72;;;12.04;78.19
42601;BME280;28229;48.856;9.088;2024-03-22T08:08:09;98362.84;;;12.03;78.07
42601;BME280;28229;48.856;9.088;2024-03-22T08:10:36;98365.88;;;12.07;78.31
42601;BME280;28229;48.856;9.088;2024-03-22T08:13:02;98364.78;;;12.14;78.74
42601;BME280;28229;48.856;9.088;2024-03-22T08:15:33;98361.59;;;12.49;77.86
42601;BME280;28229;48.856;9.088;2024-03-22T08:18:00;98358.56;;;12.71;75.70
42601;BME280;28229;48.856;9.088;2024-03-22T08:20:26;98346.44;;;12.82;74.87
42601;BME280;28229;48.856;9.088;2024-03-22T08:22:54;98348.63;;;12.85;74.78
42601;BME280;28229;48.856;9.088;2024-03-22T08:25:22;98353.81;;;12.91;75.00
42601;BME280;28229;48.856;9.088;2024-03-22T08:27:49;98352.84;;;13.04;74.93
42601;BME280;28229;48.856;9.088;2024-03-22T08:30:15;98343.94;;;13.17;74.69
42601;BME280;28229;48.856;9.088;2024-03-22T08:32:41;98348.13;;;13.25;73.77
42601;BME280;28229;48.856;9.088;2024-03-22T08:35:08;98341.00;;;13.25;73.14
42601;BME280;28229;48.856;9.088;2024-03-22T08:37:36;98351.00;;;13.23;74.16
42601;BME280;28229;48.856;9.088;2024-03-22T08:40:02;98344.56;;;13.19;73.91
42601;BME280;28229;48.856;9.088;2024-03-22T08:42:37;98333.06;;;13.25;73.95
42601;BME280;28229;48.856;9.088;2024-03-22T08:45:04;98336.59;;;13.38;73.55
42601;BME280;28229;48.856;9.088;2024-03-22T08:47:31;98339.47;;;13.36;73.34
42601;BME280;28229;48.856;9.088;2024-03-22T08:49:57;98340.84;;;13.39;73.56
42601;BME280;28229;48.856;9.088;2024-03-22T08:52:23;98343.16;;;13.47;73.57
42601;BME280;28229;48.856;9.088;2024-03-22T08:54:52;98328.81;;;13.55;73.87
42601;BME280;28229;48.856;9.088;2024-03-22T08:57:18;98328.03;;;13.78;73.95
42601;BME280;28229;48.856;9.088;2024-03-22T08:59:46;98329.91;;;14.01;72.39
42601;BME280;28229;48.856;9.088;2024-03-22T09:02:12;98329.81;;;14.07;70.67
42601;BME280;28229;48.856;9.088;2024-03-22T09:04:38;98319.00;;;14.21;69.87
42601;BME280;28229;48.856;9.088;2024-03-22T09:07:04;98318.28;;;14.37;68.75
42601;BME280;28229;48.856;9.088;2024-03-22T09:09:30;98312.19;;;14.37;67.61
42601;BME280;28229;48.856;9.088;2024-03-22T09:11:57;98313.56;;;14.51;67.91
42601;BME280;28229;48.856;9.088;2024-03-22T09:14:23;98306.66;;;14.62;66.99
42601;BME280;28229;48.856;9.088;2024-03-22T09:16:49;98311.13;;;14.73;67.35
42601;BME280;28229;48.856;9.088;2024-03-22T09:19:15;98300.38;;;14.80;65.55
42601;BME280;28229;48.856;9.088;2024-03-22T09:21:42;98297.69;;;14.92;64.64
42601;BME280;28229;48.856;9.088;2024-03-22T09:24:08;98304.16;;;15.13;63.82
42601;BME280;28229;48.856;9.088;2024-03-22T09:26:36;98297.47;;;15.39;63.05
42601;BME280;28229;48.856;9.088;2024-03-22T09:29:03;98299.59;;;15.71;62.07
42601;BME280;28229;48.856;9.088;2024-03-22T09:31:30;98293.97;;;15.67;60.71
42601;BME280;28229;48.856;9.088;2024-03-22T09:33:56;98298.16;;;15.80;60.21
42601;BME280;28229;48.856;9.088;2024-03-22T09:36:23;98289.31;;;16.08;60.52
42601;BME280;28229;48.856;9.088;2024-03-22T09:38:50;98281.09;;;16.10;59.26
42601;BME280;28229;48.856;9.088;2024-03-22T09:41:24;98284.56;;;16.32;59.06
42601;BME280;28229;48.856;9.088;2024-03-22T09:43:51;98283.13;;;16.42;58.85
42601;BME280;28229;48.856;9.088;2024-03-22T09:46:19;98277.41;;;16.55;58.38
42601;BME280;28229;48.856;9.088;2024-03-22T09:48:47;98281.38;;;16.74;58.97
42601;BME280;28229;48.856;9.088;2024-03-22T09:51:17;98275.31;;;17.01;58.36
42601;BME280;28229;48.856;9.088;2024-03-22T09:53:44;98266.88;;;17.09;58.44
42601;BME280;28229;48.856;9.088;2024-03-22T09:56:14;98265.38;;;17.19;57.73
42601;BME280;28229;48.856;9.088;2024-03-22T09:58:41;98268.88;;;17.24;57.63
42601;BME280;28229;48.856;9.088;2024-03-22T10:01:08;98260.06;;;17.19;58.22
42601;BME280;28229;48.856;9.088;2024-03-22T10:03:34;98254.22;;;17.22;56.41
42601;BME280;28229;48.856;9.088;2024-03-22T10:06:00;98257.56;;;17.39;55.78
42601;BME280;28229;48.856;9.088;2024-03-22T10:08:27;98257.03;;;17.37;54.67
42601;BME280;28229;48.856;9.088;2024-03-22T10:10:53;98250.72;;;17.48;55.37
42601;BME280;28229;48.856;9.088;2024-03-22T10:13:20;98246.56;;;17.58;55.08
42601;BME280;28229;48.856;9.088;2024-03-22T10:15:47;98248.13;;;17.59;53.62
42601;BME280;28229;48.856;9.088;2024-03-22T10:18:15;98242.91;;;17.69;52.40
42601;BME280;28229;48.856;9.088;2024-03-22T10:20:41;98236.38;;;17.49;54.12
42601;BME280;28229;48.856;9.088;2024-03-22T10:23:08;98234.84;;;17.59;52.35
42601;BME280;28229;48.856;9.088;2024-03-22T10:25:34;98227.97;;;17.68;51.40
42601;BME280;28229;48.856;9.088;2024-03-22T10:28:01;98224.84;;;17.76;52.20
42601;BME280;28229;48.856;9.088;2024-03-22T10:30:27;98225.28;;;17.63;52.54
42601;BME280;28229;48.856;9.088;2024-03-22T10:32:54;98215.81;;;17.82;52.40
42601;BME280;28229;48.856;9.088;2024-03-22T10:35:21;98222.34;;;17.97;51.50
42601;BME280;28229;48.856;9.088;2024-03-22T10:37:49;98212.56;;;18.13;51.50
42601;BME280;28229;48.856;9.088;2024-03-22T10:40:15;98201.66;;;18.14;51.86
42601;BME280;28229;48.856;9.088;2024-03-22T10:42:42;98197.41;;;18.23;50.90
42601;BME280;28229;48.856;9.088;2024-03-22T10:45:09;98191.03;;;18.24;51.62
42601;BME280;28229;48.856;9.088;2024-03-22T10:47:37;98190.00;;;18.36;51.32
42601;BME280;28229;48.856;9.088;2024-03-22T10:50:08;98183.66;;;18.42;50.46
42601;BME280;28229;48.856;9.088;2024-03-22T10:52:39;98194.63;;;18.61;49.84
42601;BME280;28229;48.856;9.088;2024-03-22T10:55:10;98183.72;;;18.73;50.05
42601;BME280;28229;48.856;9.088;2024-03-22T10:57:38;98176.25;;;18.75;48.88
42601;BME280;28229;48.856;9.088;2024-03-22T11:00:08;98170.44;;;19.03;49.06
42601;BME280;28229;48.856;9.088;2024-03-22T11:02:36;98168.03;;;19.38;47.21
42601;BME280;28229;48.856;9.088;2024-03-22T11:05:06;98176.00;;;19.58;45.52
42601;BME280;28229;48.856;9.088;2024-03-22T11:07:33;98171.75;;;19.52;47.39
42601;BME280;28229;48.856;9.088;2024-03-22T11:10:02;98159.72;;;19.70;45.86
42601;BME280;28229;48.856;9.088;2024-03-22T11:12:32;98156.47;;;19.84;45.42
42601;BME280;28229;48.856;9.088;2024-03-22T11:14:59;98158.06;;;19.95;44.41
42601;BME280;28229;48.856;9.088;2024-03-22T11:17:26;98150.88;;;19.90;45.09
42601;BME280;28229;48.856;9.088;2024-03-22T11:19:52;98152.16;;;19.98;44.97
42601;BME280;28229;48.856;9.088;2024-03-22T11:22:18;98148.97;;;19.96;45.51
42601;BME280;28229;48.856;9.088;2024-03-22T11:24:44;98137.44;;;20.16;45.25
42601;BME280;28229;48.856;9.088;2024-03-22T11:27:11;98139.72;;;20.33;45.37
42601;BME280;28229;48.856;9.088;2024-03-22T11:29:40;98136.38;;;20.57;45.04
42601;BME280;28229;48.856;9.088;2024-03-22T11:32:07;98128.59;;;20.65;43.42
42601;BME280;28229;48.856;9.088;2024-03-22T11:34:37;98121.03;;;20.78;44.12
42601;BME280;28229;48.856;9.088;2024-03-22T11:37:05;98118.00;;;20.89;41.99
42601;BME280;28229;48.856;9.088;2024-03-22T11:39:33;98111.69;;;20.75;40.97
42601;BME280;28229;48.856;9.088;2024-03-22T11:42:05;98099.13;;;20.76;41.21
42601;BME280;28229;48.856;9.088;2024-03-22T11:44:32;98101.28;;;21.03;41.67
42601;BME280;28229;48.856;9.088;2024-03-22T11:46:59;98093.59;;;21.25;40.40
42601;BME280;28229;48.856;9.088;2024-03-22T11:49:26;98090.56;;;21.37;38.99
42601;BME280;28229;48.856;9.088;2024-03-22T11:51:52;98093.59;;;21.25;38.42
42601;BME280;28229;48.856;9.088;2024-03-22T11:54:21;98081.69;;;21.13;37.70
42601;BME280;28229;48.856;9.088;2024-03-22T11:56:47;98083.78;;;21.16;38.67
42601;BME280;28229;48.856;9.088;2024-03-22T11:59:13;98085.94;;;20.84;37.49
42601;BME280;28229;48.856;9.088;2024-03-22T12:01:43;98080.66;;;20.40;37.40
42601;BME280;28229;48.856;9.088;2024-03-22T12:04:09;98076.50;;;20.58;38.06
42601;BME280;28229;48.856;9.088;2024-03-22T12:06:42;98067.94;;;20.61;38.35
42601;BME280;28229;48.856;9.088;2024-03-22T12:09:08;98064.13;;;20.72;39.24
42601;BME280;28229;48.856;9.088;2024-03-22T12:11:37;98059.81;;;20.76;39.17
42601;BME280;28229;48.856;9.088;2024-03-22T12:14:03;98057.56;;;20.88;38.65
42601;BME280;28229;48.856;9.088;2024-03-22T12:16:29;98051.44;;;20.88;38.53
42601;BME280;28229;48.856;9.088;2024-03-22T12:18:55;98042.66;;;20.82;38.55
42601;BME280;28229;48.856;9.088;2024-03-22T12:21:21;98042.66;;;20.82;38.63
42601;BME280;28229;48.856;9.088;2024-03-22T12:23:48;98030.34;;;20.81;39.70
42601;BME280;28229;48.856;9.088;2024-03-22T12:26:14;98027.22;;;20.74;38.63
42601;BME280;28229;48.856;9.088;2024-03-22T12:28:40;98020.34;;;20.68;38.52
42601;BME280;28229;48.856;9.088;2024-03-22T12:31:08;98017.19;;;20.56;38.12
42601;BME280;28229;48.856;9.088;2024-03-22T12:33:34;98010.00;;;20.51;38.63
42601;BME280;28229;48.856;9.088;2024-03-22T12:36:00;98005.91;;;20.29;38.64
42601;BME280;28229;48.856;9.088;2024-03-22T12:38:26;97998.59;;;20.40;39.14
42601;BME280;28229;48.856;9.088;2024-03-22T12:40:53;98002.31;;;20.44;39.34
42601;BME280;28229;48.856;9.088;2024-03-22T12:43:19;97996.91;;;20.49;38.30
42601;BME280;28229;48.856;9.088;2024-03-22T12:45:45;97990.47;;;20.56;38.26
42601;BME280;28229;48.856;9.088;2024-03-22T12:48:12;97985.16;;;20.50;37.94
42601;BME280;28229;48.856;9.088;2024-03-22T12:50:38;97988.66;;;20.46;38.24
42601;BME280;28229;48.856;9.088;2024-03-22T12:53:05;97983.06;;;20.47;38.04
42601;BME280;28229;48.856;9.088;2024-03-22T12:55:31;97978.50;;;20.48;38.15
42601;BME280;28229;48.856;9.088;2024-03-22T12:57:58;97970.78;;;20.46;37.89
42601;BME280;28229;48.856;9.088;2024-03-22T13:00:24;97970.19;;;20.49;38.08
42601;BME280;28229;48.856;9.088;2024-03-22T13:02:51;97971.34;;;20.43;39.33
42601;BME280;28229;48.856;9.088;2024-03-22T13:05:18;97964.88;;;20.15;38.16
42601;BME280;28229;48.856;9.088;2024-03-22T13:07:44;97961.13;;;20.16;38.70